createdAt,value
2017-09-06T00:01:41.701Z,79.70
2017-09-06T00:04:09.300Z,79.80
2017-09-06T00:06:36.906Z,80.00
2017-09-06T00:09:04.605Z,80.00
2017-09-06T00:11:32.207Z,79.90
2017-09-06T00:13:59.844Z,79.80
2017-09-06T00:16:27.453Z,79.70
2017-09-06T00:18:55.072Z,80.00
2017-09-06T00:21:23.522Z,80.10
2017-09-06T00:23:51.916Z,80.40
2017-09-06T00:26:19.532Z,80.40
2017-09-06T00:28:47.165Z,80.90
2017-09-06T00:31:14.778Z,80.90
2017-09-06T00:33:42.405Z,80.70
2017-09-06T00:36:09.993Z,80.70
2017-09-06T00:38:38.388Z,80.90
2017-09-06T00:41:06.770Z,80.70
2017-09-06T00:43:34.392Z,80.70
2017-09-06T00:46:02.001Z,80.80
2017-09-06T00:48:29.638Z,80.70
2017-09-06T00:50:58.006Z,80.90
2017-09-06T00:53:25.620Z,80.90
2017-09-06T00:55:53.227Z,81.50
2017-09-06T00:58:20.845Z,81.50
2017-09-06T01:00:48.469Z,81.40
2017-09-06T01:03:16.696Z,81.50
2017-09-06T01:05:44.320Z,81.50
2017-09-06T01:08:11.921Z,82.00
2017-09-06T01:10:39.546Z,82.10
2017-09-06T01:13:07.158Z,82.00
2017-09-06T01:15:34.806Z,81.90
2017-09-06T01:18:02.399Z,82.50
2017-09-06T01:20:30.036Z,82.60
2017-09-06T01:22:57.637Z,82.60
2017-09-06T01:25:25.270Z,82.40
2017-09-06T01:27:53.644Z,82.40
2017-09-06T01:30:21.327Z,82.40
2017-09-06T01:32:49.701Z,82.30
2017-09-06T01:35:17.322Z,82.30
2017-09-06T01:37:44.931Z,82.20
2017-09-06T01:40:13.317Z,82.60
2017-09-06T01:42:40.944Z,82.60
2017-09-06T01:45:08.543Z,82.30
2017-09-06T01:47:36.169Z,82.40
2017-09-06T01:50:03.778Z,82.40
2017-09-06T01:52:31.423Z,82.40
2017-09-06T01:54:59.043Z,82.20
2017-09-06T01:57:26.677Z,81.90
2017-09-06T01:59:54.272Z,81.70
2017-09-06T02:02:21.896Z,81.20
2017-09-06T02:04:49.488Z,80.80
2017-09-06T02:07:17.119Z,80.70
2017-09-06T02:09:44.708Z,80.70
2017-09-06T02:12:12.332Z,80.70
2017-09-06T02:14:39.941Z,80.40
2017-09-06T02:17:08.337Z,80.00
2017-09-06T02:19:36.700Z,79.70
2017-09-06T02:22:04.321Z,79.70
2017-09-06T02:24:31.926Z,79.80
2017-09-06T02:26:59.546Z,79.70
2017-09-06T02:29:27.166Z,79.70
2017-09-06T02:31:55.590Z,79.30
2017-09-06T02:34:23.187Z,79.30
2017-09-06T02:36:50.799Z,79.50
2017-09-06T02:39:18.434Z,78.80
2017-09-06T02:41:46.063Z,79.30
2017-09-06T02:44:15.063Z,79.40
2017-09-06T02:46:42.660Z,79.50
2017-09-06T02:49:10.282Z,79.60
2017-09-06T02:51:37.882Z,79.60
2017-09-06T02:54:05.510Z,79.60
2017-09-06T02:56:33.872Z,79.50
2017-09-06T02:59:01.501Z,79.50
2017-09-06T03:01:29.116Z,79.70
2017-09-06T03:03:57.505Z,79.90
2017-09-06T03:06:25.134Z,79.80
2017-09-06T03:08:52.753Z,80.00
2017-09-06T03:11:20.361Z,79.50
2017-09-06T03:13:47.985Z,79.50
2017-09-06T03:16:15.608Z,79.20
2017-09-06T03:18:43.252Z,79.10
2017-09-06T03:21:10.860Z,79.20
2017-09-06T03:23:38.488Z,79.10
2017-09-06T03:26:06.095Z,79.40
2017-09-06T03:28:34.609Z,79.60
2017-09-06T03:31:03.017Z,79.70
2017-09-06T03:33:31.376Z,79.70
2017-09-06T03:35:59.763Z,78.90
2017-09-06T03:38:27.366Z,79.50
2017-09-06T03:40:54.985Z,79.80
2017-09-06T03:45:58.123Z,79.80
2017-09-06T03:48:25.708Z,79.90
2017-09-06T03:50:53.324Z,79.70
2017-09-06T03:53:20.925Z,79.60
2017-09-06T03:55:48.566Z,79.50
2017-09-06T03:58:16.176Z,79.30
2017-09-06T04:00:43.803Z,79.30
2017-09-06T04:03:11.414Z,79.00
2017-09-06T04:05:39.044Z,78.80
2017-09-06T04:08:06.648Z,78.80
2017-09-06T04:10:34.265Z,78.70
2017-09-06T04:13:02.665Z,79.20
2017-09-06T04:15:30.287Z,79.60
2017-09-06T04:17:57.896Z,80.00
2017-09-06T04:20:26.296Z,80.40
2017-09-06T04:22:53.905Z,80.40
2017-09-06T04:25:21.529Z,80.20
2017-09-06T04:27:49.150Z,80.20
2017-09-06T04:30:16.800Z,80.10
2017-09-06T04:32:44.438Z,80.00
2017-09-06T04:35:12.045Z,80.10
2017-09-06T04:37:40.443Z,80.30
2017-09-06T04:40:08.043Z,80.30
2017-09-06T04:42:35.669Z,80.30
2017-09-06T04:45:03.308Z,80.40
2017-09-06T04:47:31.707Z,81.00
2017-09-06T04:49:59.315Z,81.00
2017-09-06T04:52:26.942Z,81.30
2017-09-06T04:54:54.536Z,81.40
2017-09-06T04:57:22.183Z,81.60
2017-09-06T04:59:49.788Z,81.10
2017-09-06T05:02:17.413Z,80.90
2017-09-06T05:04:45.031Z,80.90
2017-09-06T05:07:12.706Z,81.00
2017-09-06T05:09:40.320Z,81.10
2017-09-06T05:12:07.956Z,81.00
2017-09-06T05:14:35.570Z,81.40
2017-09-06T05:17:03.192Z,81.20
2017-09-06T05:19:30.803Z,81.90
2017-09-06T05:21:59.445Z,80.60
2017-09-06T05:24:27.113Z,80.80
2017-09-06T05:26:54.759Z,81.10
2017-09-06T05:29:22.356Z,81.40
2017-09-06T05:31:50.747Z,82.50
2017-09-06T05:34:18.360Z,82.50
2017-09-06T05:36:45.996Z,82.60
2017-09-06T05:39:13.602Z,83.30
2017-09-06T05:41:42.287Z,82.20
2017-09-06T05:44:09.885Z,82.00
2017-09-06T05:46:37.497Z,81.90
2017-09-06T05:49:05.184Z,82.10
2017-09-06T05:51:33.549Z,83.00
2017-09-06T05:54:01.174Z,82.30
2017-09-06T05:56:28.772Z,82.20
2017-09-06T05:58:57.186Z,82.30
2017-09-06T06:01:24.804Z,82.20
2017-09-06T06:03:52.428Z,82.30
2017-09-06T06:06:20.052Z,82.40
2017-09-06T06:08:48.832Z,82.70
2017-09-06T06:11:16.450Z,82.60
2017-09-06T06:13:44.084Z,83.10
2017-09-06T06:16:13.706Z,82.30
2017-09-06T06:18:41.319Z,82.50
2017-09-06T06:21:08.946Z,82.40
2017-09-06T06:23:36.586Z,81.90
2017-09-06T06:26:04.218Z,81.20
2017-09-06T06:28:32.596Z,81.60
2017-09-06T06:31:00.222Z,81.60
2017-09-06T06:33:27.826Z,81.30
2017-09-06T06:35:55.457Z,81.50
2017-09-06T06:38:23.068Z,81.20
2017-09-06T06:40:51.456Z,81.40
2017-09-06T06:43:19.069Z,81.60
2017-09-06T06:45:47.478Z,80.70
2017-09-06T06:48:15.104Z,80.60
2017-09-06T06:50:42.774Z,81.10
2017-09-06T06:53:10.388Z,81.00
2017-09-06T06:55:38.009Z,80.80
2017-09-06T06:58:05.630Z,80.70
2017-09-06T07:00:33.261Z,80.90
2017-09-06T07:03:00.860Z,81.10
2017-09-06T07:05:28.498Z,81.30
2017-09-06T07:07:56.093Z,80.80
2017-09-06T07:10:23.748Z,80.80
2017-09-06T07:12:51.386Z,81.10
2017-09-06T07:15:19.003Z,81.10
2017-09-06T07:17:46.630Z,81.20
2017-09-06T07:20:15.118Z,81.60
2017-09-06T07:22:42.730Z,81.50
2017-09-06T07:25:10.345Z,80.90
2017-09-06T07:27:37.961Z,80.70
2017-09-06T07:30:05.556Z,79.10
2017-09-06T07:32:33.175Z,79.70
2017-09-06T07:35:00.782Z,78.50
2017-09-06T07:37:29.173Z,78.50
2017-09-06T07:39:57.566Z,78.90
2017-09-06T07:42:25.189Z,78.80
2017-09-06T07:44:52.789Z,78.00
2017-09-06T07:47:20.460Z,76.20
2017-09-06T07:49:48.081Z,74.60
2017-09-06T07:52:15.709Z,71.70
2017-09-06T07:54:43.310Z,70.30
2017-09-06T07:57:11.709Z,70.00
2017-09-06T07:59:40.063Z,70.90
2017-09-06T08:02:08.464Z,72.20
2017-09-06T08:04:36.071Z,72.20
2017-09-06T08:07:06.543Z,72.50
2017-09-06T08:09:34.904Z,71.50
2017-09-06T08:12:02.529Z,71.40
2017-09-06T08:14:30.124Z,72.00
2017-09-06T08:16:57.735Z,73.40
2017-09-06T08:19:25.347Z,70.60
2017-09-06T08:21:52.974Z,68.40
2017-09-06T08:24:21.361Z,71.40
2017-09-06T08:26:48.976Z,70.60
2017-09-06T08:29:16.612Z,70.90
2017-09-06T08:31:44.207Z,69.70
2017-09-06T08:34:11.835Z,70.40
2017-09-06T08:36:39.475Z,70.00
2017-09-06T08:39:07.094Z,69.50
2017-09-06T08:41:34.707Z,69.30
2017-09-06T08:44:02.325Z,70.60
2017-09-06T08:46:29.943Z,70.90
2017-09-06T08:48:58.335Z,69.70
2017-09-06T08:51:25.953Z,69.60
2017-09-06T08:53:53.564Z,67.40
2017-09-06T08:56:21.188Z,67.20
2017-09-06T08:58:48.798Z,66.50
2017-09-06T09:01:16.422Z,63.80
2017-09-06T09:03:44.024Z,65.00
2017-09-06T09:06:11.650Z,64.10
2017-09-06T09:08:40.008Z,64.70
2017-09-06T09:11:07.632Z,64.60
2017-09-06T09:13:35.239Z,63.70
2017-09-06T09:16:03.642Z,65.80
2017-09-06T09:18:31.294Z,65.70
2017-09-06T09:20:58.915Z,65.00
2017-09-06T09:23:26.518Z,65.80
2017-09-06T09:25:54.125Z,66.60
2017-09-06T09:28:21.732Z,67.20
2017-09-06T09:30:51.252Z,66.40
2017-09-06T09:33:18.877Z,66.30
2017-09-06T09:35:46.501Z,63.90
2017-09-06T09:38:14.545Z,63.60
2017-09-06T09:40:42.202Z,64.50
2017-09-06T09:43:09.801Z,64.70
2017-09-06T09:45:37.389Z,64.20
2017-09-06T09:48:05.093Z,63.50
2017-09-06T09:50:32.706Z,63.40
2017-09-06T09:53:00.336Z,63.90
2017-09-06T09:55:27.934Z,65.30
2017-09-06T09:57:55.571Z,67.10
2017-09-06T10:00:23.165Z,67.40
2017-09-06T10:02:50.792Z,67.80
2017-09-06T10:05:18.420Z,70.00
2017-09-06T10:10:13.448Z,69.90
2017-09-06T10:12:41.090Z,69.60
2017-09-06T10:15:08.805Z,70.00
2017-09-06T10:17:36.429Z,68.90
2017-09-06T10:20:04.017Z,69.80
2017-09-06T10:22:32.403Z,68.20
2017-09-06T10:25:00.002Z,68.00
2017-09-06T10:27:28.382Z,68.80
2017-09-06T10:29:56.767Z,66.80
2017-09-06T10:32:25.180Z,66.00
2017-09-06T10:34:52.781Z,66.00
2017-09-06T10:37:20.410Z,66.10
2017-09-06T10:39:48.008Z,65.50
2017-09-06T10:42:15.625Z,64.50
2017-09-06T10:44:43.216Z,64.70
2017-09-06T10:47:10.837Z,65.50
2017-09-06T10:49:38.442Z,66.80
2017-09-06T10:52:06.056Z,68.10
2017-09-06T10:54:34.439Z,70.10
2017-09-06T10:57:02.081Z,70.30
2017-09-06T10:59:29.690Z,70.90
2017-09-06T11:01:57.319Z,71.60
2017-09-06T11:04:24.924Z,73.10
2017-09-06T11:06:52.561Z,73.90
2017-09-06T11:09:20.173Z,74.30
2017-09-06T11:11:48.528Z,73.90
2017-09-06T11:14:16.147Z,73.80
2017-09-06T11:16:43.758Z,75.00
2017-09-06T11:19:12.149Z,75.70
2017-09-06T11:21:39.760Z,75.70
2017-09-06T11:24:07.389Z,74.40
2017-09-06T11:26:34.980Z,75.00
2017-09-06T11:29:02.595Z,74.90
2017-09-06T11:31:30.192Z,75.50
2017-09-06T11:33:57.812Z,75.70
2017-09-06T11:36:26.176Z,75.40
2017-09-06T11:38:53.796Z,75.40
2017-09-06T11:41:21.433Z,74.60
2017-09-06T11:43:49.037Z,75.20
2017-09-06T11:46:16.674Z,74.50
2017-09-06T11:48:44.260Z,74.40
2017-09-06T11:51:11.876Z,74.50
2017-09-06T11:53:39.490Z,75.70
2017-09-06T11:56:07.135Z,76.20
2017-09-06T11:58:35.546Z,76.00
2017-09-06T12:01:03.160Z,76.90
2017-09-06T12:03:30.764Z,75.50
2017-09-06T12:05:58.395Z,74.30
2017-09-06T12:08:26.025Z,74.70
2017-09-06T12:10:53.652Z,73.40
2017-09-06T12:13:21.264Z,71.80
2017-09-06T12:15:48.899Z,72.20
2017-09-06T12:18:16.501Z,70.40
2017-09-06T12:20:44.117Z,69.80
2017-09-06T12:23:12.474Z,67.90
2017-09-06T12:25:40.076Z,67.90
2017-09-06T12:28:07.692Z,69.00
2017-09-06T12:30:35.287Z,68.70
2017-09-06T12:33:03.044Z,69.10
2017-09-06T12:35:31.400Z,67.40
2017-09-06T12:37:59.793Z,67.20
2017-09-06T12:40:27.384Z,66.60
2017-09-06T12:42:55.013Z,66.50
2017-09-06T12:45:23.380Z,65.40
2017-09-06T12:47:50.999Z,65.30
2017-09-06T12:50:18.607Z,65.40
2017-09-06T12:52:46.988Z,64.80
2017-09-06T12:55:14.597Z,64.80
2017-09-06T12:57:42.311Z,63.80
2017-09-06T13:00:10.711Z,64.70
2017-09-06T13:02:38.340Z,64.70
2017-09-06T13:05:05.947Z,64.80
2017-09-06T13:07:33.582Z,62.30
2017-09-06T13:10:02.157Z,62.50
2017-09-06T13:12:29.985Z,62.50
2017-09-06T13:14:57.632Z,60.90
2017-09-06T13:17:25.265Z,61.30
2017-09-06T13:19:53.110Z,59.80
2017-09-06T13:22:20.730Z,58.80
2017-09-06T13:24:48.420Z,57.80
2017-09-06T13:27:16.035Z,58.00
2017-09-06T13:29:43.664Z,58.40
2017-09-06T13:32:12.032Z,59.00
2017-09-06T13:34:39.654Z,59.00
2017-09-06T13:37:07.244Z,58.60
2017-09-06T13:39:35.166Z,60.10
2017-09-06T13:42:02.989Z,60.60
2017-09-06T13:44:30.782Z,63.00
2017-09-06T13:46:58.496Z,63.40
2017-09-06T13:49:26.141Z,64.50
2017-09-06T13:51:53.736Z,66.00
2017-09-06T13:54:21.372Z,66.10
2017-09-06T13:56:48.977Z,66.30
2017-09-06T13:59:16.588Z,66.80
2017-09-06T14:01:44.194Z,67.00
2017-09-06T14:04:12.732Z,67.40
2017-09-06T14:06:40.330Z,67.40
2017-09-06T14:09:08.724Z,68.30
2017-09-06T14:11:37.637Z,68.30
2017-09-06T14:14:05.303Z,68.20
2017-09-06T14:16:32.938Z,68.40
2017-09-06T14:19:00.558Z,68.70
2017-09-06T14:21:29.392Z,68.90
2017-09-06T14:23:58.132Z,68.20
2017-09-06T14:26:25.767Z,68.20
2017-09-06T14:28:53.381Z,68.30
2017-09-06T14:31:21.774Z,68.00
2017-09-06T14:33:49.364Z,68.00
2017-09-06T14:36:16.996Z,68.20
2017-09-06T14:38:44.597Z,68.10
2017-09-06T14:41:12.212Z,67.40
2017-09-06T14:43:39.821Z,67.10
2017-09-06T14:46:07.451Z,67.10
2017-09-06T14:48:35.071Z,67.30
2017-09-06T14:51:02.781Z,66.70
2017-09-06T14:53:30.372Z,66.50
2017-09-06T14:55:58.552Z,66.50
2017-09-06T14:58:26.152Z,66.30
2017-09-06T15:00:53.806Z,66.80
2017-09-06T15:03:22.176Z,66.30
2017-09-06T15:05:50.555Z,65.90
2017-09-06T15:08:19.032Z,61.60
2017-09-06T15:10:46.662Z,61.50
2017-09-06T15:13:14.291Z,62.50
2017-09-06T15:15:41.902Z,61.70
2017-09-06T15:18:09.532Z,60.00
2017-09-06T15:20:38.128Z,59.00
2017-09-06T15:23:06.222Z,58.10
2017-09-06T15:25:33.828Z,57.60
2017-09-06T15:28:01.469Z,58.00
2017-09-06T15:30:29.837Z,57.90
2017-09-06T15:32:58.377Z,57.90
2017-09-06T15:35:25.995Z,58.10
2017-09-06T15:37:54.374Z,57.80
2017-09-06T15:40:22.752Z,59.10
2017-09-06T15:42:50.365Z,59.10
2017-09-06T15:45:17.960Z,59.00
2017-09-06T15:47:46.353Z,58.60
2017-09-06T15:50:13.970Z,58.60
2017-09-06T15:52:41.597Z,59.10
2017-09-06T15:55:09.195Z,59.40
2017-09-06T15:57:37.060Z,59.40
2017-09-06T16:00:05.430Z,60.40
2017-09-06T16:02:33.947Z,60.30
2017-09-06T16:05:01.560Z,60.80
2017-09-06T16:07:29.532Z,59.30
2017-09-06T16:09:58.310Z,59.30
2017-09-06T16:12:26.006Z,60.50
2017-09-06T16:14:53.628Z,59.70
2017-09-06T16:17:21.255Z,60.30
2017-09-06T16:19:48.876Z,60.10
2017-09-06T16:22:16.497Z,60.40
2017-09-06T16:24:44.107Z,60.40
2017-09-06T16:27:12.494Z,59.50
2017-09-06T16:29:40.089Z,59.50
2017-09-06T16:32:08.484Z,59.10
2017-09-06T16:34:36.589Z,59.00
2017-09-06T16:37:04.196Z,57.50
2017-09-06T16:39:31.838Z,56.90
2017-09-06T16:41:59.448Z,56.80
2017-09-06T16:44:27.093Z,56.60
2017-09-06T16:46:55.456Z,57.00
2017-09-06T16:49:23.851Z,56.80
2017-09-06T16:51:51.449Z,56.80
2017-09-06T16:54:19.073Z,57.90
2017-09-06T16:56:46.670Z,57.30
2017-09-06T16:59:14.292Z,57.70
2017-09-06T17:01:42.672Z,57.90
2017-09-06T17:04:10.287Z,57.80
2017-09-06T17:06:37.952Z,57.80
2017-09-06T17:09:05.577Z,58.50
2017-09-06T17:11:33.209Z,59.00
2017-09-06T17:14:01.566Z,59.10
2017-09-06T17:16:29.193Z,59.10
2017-09-06T17:18:56.795Z,59.00
2017-09-06T17:21:24.419Z,59.50
2017-09-06T17:23:52.012Z,60.60
2017-09-06T17:26:19.648Z,59.10
2017-09-06T17:28:47.258Z,59.30
2017-09-06T17:31:14.889Z,59.70
2017-09-06T17:33:42.481Z,59.70
2017-09-06T17:36:10.096Z,60.60
2017-09-06T17:38:37.705Z,59.90
2017-09-06T17:41:05.348Z,60.00
2017-09-06T17:43:32.945Z,59.50
2017-09-06T17:46:00.559Z,58.70
2017-09-06T17:48:28.412Z,59.30
2017-09-06T17:50:56.053Z,58.90
2017-09-06T17:53:23.680Z,58.80
2017-09-06T17:55:51.281Z,58.90
2017-09-06T17:58:18.935Z,59.40
2017-09-06T18:00:46.539Z,59.40
2017-09-06T18:03:14.943Z,61.30
2017-09-06T18:05:42.567Z,60.80
2017-09-06T18:08:10.205Z,60.00
2017-09-06T18:10:38.609Z,60.90
2017-09-06T18:13:07.001Z,60.90
2017-09-06T18:15:34.588Z,60.90
2017-09-06T18:18:02.252Z,61.20
2017-09-06T18:20:29.855Z,61.40
2017-09-06T18:22:57.466Z,62.00
2017-09-06T18:25:25.062Z,61.40
2017-09-06T18:27:52.684Z,61.70
2017-09-06T18:30:20.285Z,63.00
2017-09-06T18:32:47.919Z,62.50
2017-09-06T18:35:15.517Z,63.00
2017-09-06T18:37:43.129Z,63.90
2017-09-06T18:40:10.726Z,64.30
2017-09-06T18:42:38.357Z,63.80
2017-09-06T18:45:05.953Z,63.90
2017-09-06T18:47:33.572Z,63.10
2017-09-06T18:50:01.179Z,62.80
2017-09-06T18:52:28.794Z,63.00
2017-09-06T18:54:57.084Z,63.10
2017-09-06T18:57:24.716Z,63.40
2017-09-06T18:59:53.150Z,63.50
2017-09-06T19:02:20.749Z,63.50
2017-09-06T19:04:48.494Z,62.90
2017-09-06T19:07:16.272Z,64.10
2017-09-06T19:09:43.889Z,63.00
2017-09-06T19:12:11.498Z,62.80
2017-09-06T19:14:39.913Z,63.00
2017-09-06T19:17:07.501Z,63.00
2017-09-06T19:19:35.126Z,63.40
2017-09-06T19:22:02.734Z,63.60
2017-09-06T19:24:30.341Z,63.10
2017-09-06T19:26:57.936Z,63.90
2017-09-06T19:29:25.603Z,64.00
2017-09-06T19:31:54.568Z,63.10
2017-09-06T19:34:22.191Z,63.00
2017-09-06T19:36:49.811Z,63.50
2017-09-06T19:39:17.461Z,63.80
2017-09-06T19:41:45.064Z,63.90
2017-09-06T19:44:12.706Z,64.10
2017-09-06T19:46:40.316Z,63.80
2017-09-06T19:49:08.670Z,64.30
2017-09-06T19:51:36.286Z,64.30
2017-09-06T19:54:03.888Z,64.20
2017-09-06T19:56:31.878Z,63.80
2017-09-06T19:58:59.532Z,63.50
2017-09-06T20:01:27.942Z,63.00
2017-09-06T20:03:56.393Z,63.00
2017-09-06T20:06:24.791Z,63.30
2017-09-06T20:08:52.403Z,63.30
2017-09-06T20:11:20.032Z,63.70
2017-09-06T20:13:47.620Z,63.20
2017-09-06T20:16:15.290Z,64.20
2017-09-06T20:18:43.018Z,64.20
2017-09-06T20:21:10.789Z,64.80
2017-09-06T20:23:38.507Z,64.60
2017-09-06T20:26:06.108Z,64.80
2017-09-06T20:28:33.726Z,64.90
2017-09-06T20:31:01.354Z,64.60
2017-09-06T20:33:29.774Z,65.20
2017-09-06T20:35:57.580Z,65.20
2017-09-06T20:38:25.276Z,65.40
2017-09-06T20:40:52.868Z,65.80
2017-09-06T20:43:21.254Z,64.70
2017-09-06T20:45:48.881Z,64.70
2017-09-06T20:48:16.522Z,65.40
2017-09-06T20:50:44.124Z,65.40
2017-09-06T20:53:13.024Z,66.00
2017-09-06T20:55:40.634Z,66.00
2017-09-06T20:58:08.253Z,65.90
2017-09-06T21:00:35.859Z,66.00
2017-09-06T21:03:03.527Z,66.10
2017-09-06T21:05:31.916Z,66.60
2017-09-06T21:07:59.546Z,66.60
2017-09-06T21:10:27.170Z,66.20
2017-09-06T21:12:54.828Z,66.50
2017-09-06T21:15:23.189Z,66.70
2017-09-06T21:17:50.827Z,66.70
2017-09-06T21:20:18.432Z,65.70
2017-09-06T21:22:46.071Z,65.40
2017-09-06T21:25:13.673Z,64.70
2017-09-06T21:27:41.297Z,65.00
2017-09-06T21:30:08.901Z,65.10
2017-09-06T21:32:37.264Z,65.80
2017-09-06T21:35:04.894Z,65.70
2017-09-06T21:37:32.484Z,65.00
2017-09-06T21:40:00.138Z,65.10
2017-09-06T21:42:27.733Z,65.40
2017-09-06T21:44:55.349Z,65.60
2017-09-06T21:47:23.714Z,65.80
2017-09-06T21:49:51.341Z,65.80
2017-09-06T21:52:18.934Z,65.80
2017-09-06T21:54:46.572Z,66.20
2017-09-06T21:57:14.182Z,66.30
2017-09-06T21:59:41.828Z,65.80
2017-09-06T22:02:09.425Z,66.10
2017-09-06T22:04:37.061Z,66.60
2017-09-06T22:07:04.665Z,66.80
2017-09-06T22:09:32.270Z,66.80
2017-09-06T22:11:59.893Z,66.90
2017-09-06T22:14:27.489Z,66.90
2017-09-06T22:16:55.126Z,66.40
2017-09-06T22:19:22.737Z,66.70
2017-09-06T22:21:50.352Z,66.80
2017-09-06T22:24:18.307Z,67.10
2017-09-06T22:26:46.465Z,67.60
2017-09-06T22:29:14.154Z,67.80
2017-09-06T22:31:41.804Z,68.00
2017-09-06T22:34:09.456Z,67.90
2017-09-06T22:36:37.883Z,67.70
2017-09-06T22:39:05.476Z,68.00
2017-09-06T22:41:33.101Z,67.50
2017-09-06T22:44:00.705Z,68.20
2017-09-06T22:46:28.343Z,68.40
2017-09-06T22:48:55.956Z,68.60
2017-09-06T22:51:23.569Z,68.90
2017-09-06T22:53:51.962Z,68.50
2017-09-06T22:56:19.565Z,68.50
2017-09-06T22:58:47.202Z,68.60
2017-09-06T23:01:14.805Z,68.40
2017-09-06T23:03:42.436Z,68.80
2017-09-06T23:06:10.046Z,69.40
2017-09-06T23:08:38.446Z,68.60
2017-09-06T23:11:06.096Z,68.60
2017-09-06T23:13:33.726Z,69.00
2017-09-06T23:16:01.326Z,68.80
2017-09-06T23:18:28.946Z,69.30
2017-09-06T23:20:56.540Z,68.80
2017-09-06T23:23:24.179Z,68.80
2017-09-06T23:25:51.802Z,69.00
2017-09-06T23:28:19.421Z,69.10
2017-09-06T23:30:47.795Z,69.40
2017-09-06T23:33:16.187Z,69.90
2017-09-06T23:35:43.793Z,69.90
2017-09-06T23:38:12.194Z,70.50
2017-09-06T23:40:39.787Z,70.50
2017-09-06T23:43:07.400Z,70.60
2017-09-06T23:45:35.801Z,70.10
2017-09-06T23:48:03.405Z,70.10
2017-09-06T23:50:31.041Z,70.00
2017-09-06T23:52:59.426Z,70.00
2017-09-06T23:55:27.065Z,69.90
2017-09-06T23:57:55.442Z,70.10
